| time (UTC) | temp C | wind direction | speed KPH | gust KPH | rain 1hr cm | rain 24hr cm | rain mn cm | humidity % | barometer mb |
| 20260505041557 | 20 | 218 | 9.7 | 19.3 | 0.00 | 0.00 | 0.00 | 65 | 1003.0 |
| 20260505040038 | 20 | 261 | 8.0 | 16.1 | 0.00 | 0.00 | 0.00 | 64 | 1003.2 |
| 20260505034518 | 20 | 229 | 4.8 | 11.3 | 0.00 | 0.00 | 0.00 | 64 | 1003.2 |
| 20260505033116 | 20 | 231 | 6.4 | 16.1 | 0.00 | 0.00 | 0.00 | 62 | 1003.2 |
| 20260505031544 | 20 | 214 | 4.8 | 14.5 | 0.00 | 0.00 | 0.00 | 62 | 1002.9 |
| 20260505030028 | 21 | 233 | 4.8 | 14.5 | 0.00 | 0.00 | 0.00 | 61 | 1002.5 |
| 20260505024505 | 21 | 219 | 8.0 | 16.1 | 0.00 | 0.00 | 0.00 | 59 | 1002.3 |
| 20260505023058 | 21 | 242 | 6.4 | 12.9 | 0.00 | 0.00 | 0.00 | 58 | 1002.0 |
| 20260505021522 | 21 | 223 | 8.0 | 12.9 | 0.00 | 0.00 | 0.00 | 57 | 1001.6 |
| 20260505020002 | 22 | 205 | 4.8 | 12.9 | 0.00 | 0.00 | 0.00 | 57 | 1001.3 |
| 20260505014542 | 22 | 245 | 9.7 | 19.3 | 0.00 | 0.00 | 0.00 | 55 | 1001.2 |
| 20260505013023 | 22 | 167 | 8.0 | 17.7 | 0.00 | 0.00 | 0.00 | 55 | 1001.1 |
| 20260505011506 | 23 | 248 | 9.7 | 19.3 | 0.00 | 0.00 | 0.00 | 55 | 1001.1 |
| 20260505010048 | 23 | 251 | 8.0 | 16.1 | 0.00 | 0.00 | 0.00 | 54 | 1000.9 |
| 20260505004539 | 23 | 206 | 9.7 | 17.7 | 0.00 | 0.00 | 0.00 | 52 | 1000.8 |
| 20260505003011 | 24 | 207 | 12.9 | 22.5 | 0.00 | 0.00 | 0.00 | 51 | 1000.7 |
| 20260505001556 | 25 | 224 | 8.0 | 16.1 | 0.00 | 0.00 | 0.00 | 50 | 1000.6 |
| 20260505000038 | 25 | 240 | 8.0 | 22.5 | 0.00 | 0.00 | 0.00 | 46 | 1000.7 |
| 20260504234528 | 25 | 235 | 14.5 | 24.1 | 0.00 | 0.00 | 0.00 | 45 | 1000.6 |
| 20260504233004 | 26 | 243 | 14.5 | 29.0 | 0.00 | 0.00 | 0.00 | 44 | 1000.7 |
| 20260504231554 | 26 | 243 | 17.7 | 32.2 | 0.00 | 0.00 | 0.00 | 42 | 1000.8 |
| 20260504230029 | 26 | 244 | 16.1 | 29.0 | 0.00 | 0.00 | 0.00 | 42 | 1000.8 |
| 20260504224512 | 27 | 274 | 11.3 | 24.1 | 0.00 | 0.00 | 0.00 | 44 | 1000.6 |
| 20260504223059 | 27 | 252 | 22.5 | 33.8 | 0.00 | 0.00 | 0.00 | 42 | 1000.7 |
| 20260504221542 | 27 | 240 | 16.1 | 33.8 | 0.00 | 0.00 | 0.00 | 43 | 1000.7 |
| 20260504220023 | 27 | 264 | 14.5 | 30.6 | 0.00 | 0.00 | 0.00 | 43 | 1000.7 |
| 20260504214506 | 27 | 231 | 20.9 | 35.4 | 0.00 | 0.00 | 0.00 | 43 | 1000.7 |
| 20260504213058 | 27 | 245 | 19.3 | 35.4 | 0.00 | 0.00 | 0.00 | 43 | 1000.8 |
| 20260504211531 | 26 | 236 | 17.7 | 40.2 | 0.00 | 0.00 | 0.00 | 44 | 1000.7 |
| 20260504210015 | 26 | 203 | 17.7 | 32.2 | 0.00 | 0.00 | 0.00 | 45 | 1000.9 |
| 20260504204638 | 26 | 233 | 19.3 | 40.2 | 0.00 | 0.00 | 0.00 | 46 | 1000.9 |
| 20260504203040 | 26 | 229 | 16.1 | 33.8 | 0.00 | 0.00 | 0.00 | 47 | 1001.2 |
| 20260504201523 | 26 | 211 | 24.1 | 40.2 | 0.00 | 0.00 | 0.00 | 45 | 1001.2 |
| 20260504200010 | 26 | 233 | 16.1 | 32.2 | 0.00 | 0.00 | 0.00 | 47 | 1001.4 |
| 20260504194556 | 25 | 212 | 9.7 | 30.6 | 0.00 | 0.00 | 0.00 | 49 | 1002.0 |
| 20260504193039 | 26 | 236 | 16.1 | 37.0 | 0.00 | 0.00 | 0.00 | 48 | 1002.3 |
| 20260504191522 | 25 | 231 | 9.7 | 16.1 | 0.00 | 0.00 | 0.00 | 50 | 1002.5 |
| 20260504190007 | 24 | 240 | 14.5 | 32.2 | 0.00 | 0.00 | 0.00 | 48 | 1002.8 |
| 20260504184602 | 25 | 250 | 17.7 | 33.8 | 0.00 | 0.00 | 0.00 | 48 | 1003.0 |
| 20260504183034 | 25 | 252 | 16.1 | 29.0 | 0.00 | 0.00 | 0.00 | 47 | 1002.8 |
| 20260504181518 | 26 | 257 | 12.9 | 29.0 | 0.00 | 0.00 | 0.00 | 46 | 1002.8 |
| 20260504180003 | 25 | 236 | 12.9 | 25.7 | 0.00 | 0.00 | 0.00 | 47 | 1002.9 |
| 20260504174551 | 25 | 249 | 16.1 | 27.4 | 0.00 | 0.00 | 0.00 | 48 | 1003.1 |
| 20260504173031 | 25 | 257 | 12.9 | 35.4 | 0.00 | 0.00 | 0.00 | 48 | 1003.1 |
| 20260504171533 | 25 | 276 | 14.5 | 38.6 | 0.00 | 0.00 | 0.00 | 49 | 1003.3 |
| 20260504081524 | 16 | 254 | 3.2 | 6.4 | 0.00 | 0.00 | 0.00 | 68 | 1006.1 |
| 20260504050017 | 17 | 236 | 8.0 | 16.1 | 0.00 | 0.00 | 0.00 | 62 | 1007.8 |
| 20260504044502 | 17 | 223 | 9.7 | 14.5 | 0.00 | 0.00 | 0.00 | 62 | 1008.0 |
| 20260504043047 | 17 | 231 | 9.7 | 14.5 | 0.00 | 0.00 | 0.00 | 61 | 1008.1 |